createdAt,value
2018-04-10T00:01:03.705Z,13.30
2018-04-10T00:03:31.203Z,13.30
2018-04-10T00:05:59.085Z,13.20
2018-04-10T00:08:27.014Z,13.10
2018-04-10T00:10:54.510Z,13.10
2018-04-10T00:13:22.402Z,13.00
2018-04-10T00:15:49.912Z,13.00
2018-04-10T00:18:17.405Z,12.90
2018-04-10T00:20:44.908Z,12.80
2018-04-10T00:23:12.461Z,12.80
2018-04-10T00:25:39.975Z,12.70
2018-04-10T00:28:07.481Z,12.70
2018-04-10T00:30:35.016Z,12.60
2018-04-10T00:33:02.514Z,12.60
2018-04-10T00:35:29.998Z,12.50
2018-04-10T00:37:57.517Z,12.50
2018-04-10T00:40:25.017Z,12.40
2018-04-10T00:42:52.512Z,12.40
2018-04-10T00:45:20.034Z,12.30
2018-04-10T00:47:47.572Z,12.30
2018-04-10T00:50:15.461Z,12.20
2018-04-10T00:52:42.985Z,12.20
2018-04-10T00:55:10.889Z,12.10
2018-04-10T00:57:38.393Z,12.10
2018-04-10T01:00:05.925Z,12.10
2018-04-10T01:02:33.417Z,12.10
2018-04-10T01:05:00.920Z,12.00
2018-04-10T01:07:28.470Z,12.00
2018-04-10T01:09:55.974Z,11.90
2018-04-10T01:12:24.230Z,11.90
2018-04-10T01:14:51.748Z,11.80
2018-04-10T01:17:19.649Z,11.70
2018-04-10T01:19:47.184Z,11.80
2018-04-10T01:22:14.679Z,11.70
2018-04-10T01:24:42.197Z,11.60
2018-04-10T01:27:09.698Z,11.60
2018-04-10T01:29:38.116Z,11.60
2018-04-10T01:32:06.032Z,11.50
2018-04-10T01:34:33.537Z,11.50
2018-04-10T01:37:01.424Z,11.40
2018-04-10T01:39:29.106Z,11.40
2018-04-10T01:41:56.592Z,11.40
2018-04-10T01:44:24.088Z,11.30
2018-04-10T01:46:51.995Z,11.20
2018-04-10T01:49:19.481Z,11.20
2018-04-10T01:51:47.008Z,11.20
2018-04-10T01:54:14.494Z,11.10
2018-04-10T01:56:42.021Z,11.10
2018-04-10T01:59:09.509Z,11.00
2018-04-10T02:01:37.025Z,11.00
2018-04-10T02:04:04.533Z,10.90
2018-04-10T02:06:32.041Z,10.90
2018-04-10T02:08:59.535Z,10.90
2018-04-10T02:11:27.023Z,10.90
2018-04-10T02:13:54.556Z,10.80
2018-04-10T02:16:22.149Z,10.80
2018-04-10T02:18:49.688Z,10.70
2018-04-10T02:21:17.163Z,10.60
2018-04-10T02:23:45.072Z,10.60
2018-04-10T02:26:12.542Z,10.60
2018-04-10T02:28:40.035Z,10.50
2018-04-10T02:31:07.902Z,10.40
2018-04-10T02:33:35.795Z,10.30
2018-04-10T02:36:03.278Z,10.30
2018-04-10T02:38:30.790Z,10.30
2018-04-10T02:40:58.680Z,10.20
2018-04-10T02:43:26.164Z,10.20
2018-04-10T02:45:53.706Z,10.10
2018-04-10T02:48:21.231Z,10.10
2018-04-10T02:50:49.098Z,10.00
2018-04-10T02:53:16.974Z,10.00
2018-04-10T02:55:44.470Z,10.00
2018-04-10T02:58:11.972Z,9.90
2018-04-10T03:00:39.876Z,9.80
2018-04-10T03:03:07.354Z,9.80
2018-04-10T03:05:34.839Z,9.80
2018-04-10T03:08:02.323Z,9.80
2018-04-10T03:10:29.809Z,9.70
2018-04-10T03:12:57.302Z,9.70
2018-04-10T03:15:24.779Z,9.70
2018-04-10T03:17:52.676Z,9.60
2018-04-10T03:20:20.152Z,9.60
2018-04-10T03:22:47.619Z,9.60
2018-04-10T03:25:15.101Z,9.50
2018-04-10T03:27:42.583Z,9.50
2018-04-10T03:30:10.059Z,9.40
2018-04-10T03:32:37.575Z,9.40
2018-04-10T03:35:05.058Z,9.30
2018-04-10T03:37:32.526Z,9.30
2018-04-10T03:40:00.010Z,9.30
2018-04-10T03:42:27.522Z,9.20
2018-04-10T03:44:55.413Z,9.10
2018-04-10T03:47:22.926Z,9.10
2018-04-10T03:49:51.318Z,9.10
2018-04-10T03:52:19.218Z,9.00
2018-04-10T03:54:46.689Z,9.00
2018-04-10T03:57:14.178Z,9.00
2018-04-10T03:59:41.655Z,8.90
2018-04-10T04:02:09.583Z,8.90
2018-04-10T04:04:37.071Z,8.90
2018-04-10T04:07:04.545Z,8.90
2018-04-10T04:09:32.452Z,8.90
2018-04-10T04:11:59.927Z,8.90
2018-04-10T04:14:27.402Z,8.90
2018-04-10T04:20:12.783Z,8.80
2018-04-10T04:22:40.263Z,8.80
2018-04-10T04:25:08.133Z,8.80
2018-04-10T04:27:36.019Z,8.70
2018-04-10T04:30:03.528Z,8.70
2018-04-10T04:32:31.020Z,8.70
2018-04-10T04:34:59.466Z,8.70
2018-04-10T04:37:26.934Z,8.70
2018-04-10T04:39:54.432Z,8.70
2018-04-10T04:42:21.930Z,8.70
2018-04-10T04:44:49.419Z,8.70
2018-04-10T04:47:16.912Z,8.70
2018-04-10T04:49:44.434Z,8.70
2018-04-10T04:52:12.329Z,8.60
2018-04-10T04:54:39.842Z,8.60
2018-04-10T04:57:07.343Z,8.60
2018-04-10T04:59:34.868Z,8.60
2018-04-10T05:02:02.309Z,8.70
2018-04-10T05:04:29.797Z,8.60
2018-04-10T05:06:57.678Z,8.70
2018-04-10T05:09:25.209Z,8.70
2018-04-10T05:11:52.673Z,8.70
2018-04-10T05:14:20.997Z,8.70
2018-04-10T05:16:48.505Z,8.70
2018-04-10T05:19:17.303Z,8.70
2018-04-10T05:21:45.199Z,8.70
2018-04-10T05:24:12.719Z,8.70
2018-04-10T05:26:40.209Z,8.70
2018-04-10T05:29:07.684Z,8.80
2018-04-10T05:31:35.165Z,8.80
2018-04-10T05:34:02.665Z,8.90
2018-04-10T05:36:30.165Z,8.90
2018-04-10T05:38:57.662Z,8.90
2018-04-10T05:41:25.531Z,9.10
2018-04-10T05:43:53.393Z,9.30
2018-04-10T05:46:21.291Z,9.40
2018-04-10T05:48:48.771Z,9.40
2018-04-10T05:51:16.278Z,9.50
2018-04-10T05:53:44.173Z,9.80
2018-04-10T05:56:11.669Z,9.80
2018-04-10T05:58:39.947Z,9.90
2018-04-10T06:01:07.701Z,10.00
2018-04-10T06:03:35.201Z,10.10
2018-04-10T06:06:03.090Z,10.20
2018-04-10T06:08:30.598Z,10.20
2018-04-10T06:10:58.078Z,10.20
2018-04-10T06:13:25.961Z,10.40
2018-04-10T06:15:53.461Z,10.40
2018-04-10T06:18:20.960Z,10.60
2018-04-10T06:20:48.880Z,10.90
2018-04-10T06:23:16.369Z,10.90
2018-04-10T06:25:43.861Z,11.10
2018-04-10T06:28:11.369Z,11.30
2018-04-10T06:30:38.845Z,11.50
2018-04-10T06:33:06.714Z,11.90
2018-04-10T06:35:34.699Z,12.20
2018-04-10T06:38:02.199Z,12.20
2018-04-10T06:40:29.692Z,12.50
2018-04-10T06:42:57.189Z,12.60
2018-04-10T06:45:24.689Z,12.60
2018-04-10T06:47:52.189Z,12.70
2018-04-10T06:50:19.714Z,12.90
2018-04-10T06:52:47.210Z,13.10
2018-04-10T06:55:14.701Z,13.40
2018-04-10T06:57:42.181Z,13.70
2018-04-10T07:00:09.695Z,14.00
2018-04-10T07:02:37.186Z,14.20
2018-04-10T07:05:04.679Z,14.70
2018-04-10T07:07:32.592Z,15.30
2018-04-10T07:10:00.098Z,15.30
2018-04-10T07:12:28.010Z,15.90
2018-04-10T07:14:55.508Z,15.90
2018-04-10T07:17:23.028Z,16.10
2018-04-10T07:19:50.505Z,16.20
2018-04-10T07:22:18.000Z,16.30
2018-04-10T07:24:45.879Z,16.40
2018-04-10T07:27:13.386Z,16.40
2018-04-10T07:29:40.867Z,16.50
2018-04-10T07:32:08.772Z,16.90
2018-04-10T07:34:37.066Z,16.90
2018-04-10T07:37:04.576Z,17.20
2018-04-10T07:39:32.085Z,17.30
2018-04-10T07:41:59.563Z,17.70
2018-04-10T07:44:27.065Z,17.90
2018-04-10T07:46:54.586Z,17.90
2018-04-10T07:49:22.081Z,18.10
2018-04-10T07:51:49.574Z,18.30
2018-04-10T07:54:17.058Z,18.60
2018-04-10T07:56:44.555Z,18.50
2018-04-10T07:59:12.033Z,18.70
2018-04-10T08:01:39.541Z,18.90
2018-04-10T08:04:07.423Z,18.50
2018-04-10T08:06:34.957Z,18.50
2018-04-10T08:09:02.489Z,18.40
2018-04-10T08:14:03.825Z,18.70
2018-04-10T08:16:31.331Z,18.90
2018-04-10T08:18:58.839Z,19.00
2018-04-10T08:21:26.351Z,19.00
2018-04-10T08:23:53.819Z,19.20
2018-04-10T08:26:21.710Z,19.40
2018-04-10T08:28:49.233Z,19.40
2018-04-10T08:31:16.711Z,19.60
2018-04-10T08:33:44.599Z,19.80
2018-04-10T08:36:12.128Z,19.80
2018-04-10T08:38:40.027Z,20.30
2018-04-10T08:41:07.545Z,20.30
2018-04-10T08:43:35.051Z,20.70
2018-04-10T08:46:02.535Z,21.20
2018-04-10T08:48:30.033Z,21.50
2018-04-10T08:53:31.730Z,21.90
2018-04-10T08:55:59.223Z,22.20
2018-04-10T08:58:26.699Z,22.30
2018-04-10T09:00:54.613Z,23.00
2018-04-10T09:03:22.104Z,23.00
2018-04-10T09:05:49.591Z,23.00
2018-04-10T09:08:17.543Z,23.40
2018-04-10T09:10:45.063Z,23.40
2018-04-10T09:13:12.623Z,23.40
2018-04-10T09:15:40.122Z,23.30
2018-04-10T09:18:08.073Z,23.50
2018-04-10T09:20:35.603Z,23.50
2018-04-10T09:23:03.125Z,23.60
2018-04-10T09:25:30.704Z,23.90
2018-04-10T09:27:58.243Z,24.00
2018-04-10T09:30:25.827Z,24.30
2018-04-10T09:32:53.314Z,24.60
2018-04-10T09:35:20.846Z,24.70
2018-04-10T09:37:48.368Z,25.00
2018-04-10T09:40:15.927Z,24.80
2018-04-10T09:42:43.483Z,24.90
2018-04-10T09:45:11.014Z,25.00
2018-04-10T09:47:38.549Z,25.20
2018-04-10T09:50:06.729Z,25.20
2018-04-10T09:52:34.679Z,25.00
2018-04-10T09:55:02.190Z,25.00
2018-04-10T09:57:30.176Z,25.40
2018-04-10T09:59:57.699Z,25.40
2018-04-10T10:02:25.237Z,25.30
2018-04-10T10:04:52.760Z,25.50
2018-04-10T10:07:20.313Z,25.80
2018-04-10T10:09:47.871Z,25.90
2018-04-10T10:12:16.324Z,26.10
2018-04-10T10:14:43.835Z,26.10
2018-04-10T10:17:11.320Z,26.30
2018-04-10T10:19:38.817Z,26.30
2018-04-10T10:22:06.717Z,26.40
2018-04-10T10:24:34.598Z,26.60
2018-04-10T10:27:02.095Z,26.60
2018-04-10T10:29:29.990Z,26.70
2018-04-10T10:31:57.466Z,26.70
2018-04-10T10:34:24.957Z,26.70
2018-04-10T10:36:52.466Z,27.00
2018-04-10T10:39:19.974Z,27.10
2018-04-10T10:41:47.447Z,27.10
2018-04-10T10:44:18.556Z,26.90
2018-04-10T10:46:46.043Z,26.90
2018-04-10T10:49:13.925Z,26.20
2018-04-10T10:51:42.172Z,26.20
2018-04-10T10:54:09.644Z,26.20
2018-04-10T10:56:37.565Z,26.70
2018-04-10T10:59:05.062Z,26.60
2018-04-10T11:01:32.547Z,26.40
2018-04-10T11:04:01.071Z,26.30
2018-04-10T11:06:28.600Z,26.60
2018-04-10T11:08:56.441Z,26.90
2018-04-10T11:11:24.316Z,26.90
2018-04-10T11:13:51.814Z,26.90
2018-04-10T11:16:19.318Z,27.10
2018-04-10T11:18:47.188Z,26.90
2018-04-10T11:21:15.083Z,27.20
2018-04-10T11:23:42.564Z,27.20
2018-04-10T11:26:10.063Z,27.10
2018-04-10T11:28:37.961Z,27.10
2018-04-10T11:31:05.435Z,27.10
2018-04-10T11:33:32.939Z,27.30
2018-04-10T11:36:00.820Z,27.70
2018-04-10T11:38:28.299Z,27.70
2018-04-10T11:40:57.519Z,27.70
2018-04-10T11:43:25.085Z,27.70
2018-04-10T11:45:52.558Z,28.20
2018-04-10T11:48:20.128Z,28.40
2018-04-10T11:50:47.651Z,28.10
2018-04-10T11:53:15.144Z,28.20
2018-04-10T11:55:42.642Z,28.30
2018-04-10T11:58:10.149Z,28.40
2018-04-10T12:00:37.648Z,28.00
2018-04-10T12:03:05.119Z,27.50
2018-04-10T12:05:32.613Z,27.80
2018-04-10T12:08:00.114Z,28.10
2018-04-10T12:10:27.594Z,28.30
2018-04-10T12:12:55.088Z,28.40
2018-04-10T12:15:22.589Z,28.50
2018-04-10T12:17:50.091Z,28.50
2018-04-10T12:20:17.596Z,28.40
2018-04-10T12:22:45.103Z,28.30
2018-04-10T12:25:12.641Z,28.30
2018-04-10T12:27:40.135Z,28.20
2018-04-10T12:30:07.653Z,28.20
2018-04-10T12:32:35.154Z,28.10
2018-04-10T12:35:02.649Z,28.20
2018-04-10T12:37:30.254Z,28.30
2018-04-10T12:39:57.740Z,28.50
2018-04-10T12:42:25.615Z,28.90
2018-04-10T12:44:53.513Z,28.60
2018-04-10T12:47:21.003Z,28.70
2018-04-10T12:49:48.507Z,28.90
2018-04-10T12:52:15.986Z,29.00
2018-04-10T12:54:43.466Z,28.80
2018-04-10T12:57:10.963Z,28.70
2018-04-10T12:59:38.854Z,28.30
2018-04-10T13:02:06.328Z,28.30
2018-04-10T13:04:33.844Z,27.80
2018-04-10T13:07:01.726Z,27.50
2018-04-10T13:09:29.223Z,27.50
2018-04-10T13:11:57.165Z,28.20
2018-04-10T13:14:24.669Z,28.20
2018-04-10T13:16:52.155Z,28.50
2018-04-10T13:19:20.062Z,28.50
2018-04-10T13:21:47.553Z,28.50
2018-04-10T13:24:15.035Z,28.70
2018-04-10T13:26:42.974Z,27.80
2018-04-10T13:29:10.433Z,27.80
2018-04-10T13:31:37.958Z,28.10
2018-04-10T13:34:05.457Z,28.10
2018-04-10T13:36:33.344Z,28.40
2018-04-10T13:39:00.859Z,28.40
2018-04-10T13:41:34.707Z,28.70
2018-04-10T13:44:02.618Z,29.00
2018-04-10T13:46:30.144Z,29.00
2018-04-10T13:48:57.647Z,29.20
2018-04-10T13:51:25.139Z,29.70
2018-04-10T13:53:53.567Z,29.60
2018-04-10T13:56:21.065Z,29.60
2018-04-10T13:58:48.965Z,30.10
2018-04-10T14:01:16.469Z,30.10
2018-04-10T14:03:43.967Z,30.70
2018-04-10T14:06:11.882Z,30.90
2018-04-10T14:08:39.373Z,30.90
2018-04-10T14:11:08.924Z,30.90
2018-04-10T14:13:36.433Z,31.00
2018-04-10T14:16:04.335Z,30.60
2018-04-10T14:18:31.867Z,30.60
2018-04-10T14:20:59.735Z,29.20
2018-04-10T14:23:27.622Z,28.80
2018-04-10T14:25:55.134Z,28.80
2018-04-10T14:28:22.650Z,28.60
2018-04-10T14:30:50.134Z,27.80
2018-04-10T14:33:17.638Z,27.30
2018-04-10T14:35:45.554Z,26.90
2018-04-10T14:38:13.066Z,26.90
2018-04-10T14:40:40.962Z,26.60
2018-04-10T14:43:08.436Z,26.60
2018-04-10T14:45:37.902Z,26.60
2018-04-10T14:48:06.301Z,26.50
2018-04-10T14:50:33.819Z,26.50
2018-04-10T14:53:01.726Z,27.30
2018-04-10T14:55:29.242Z,27.30
2018-04-10T14:57:57.123Z,27.70
2018-04-10T15:00:24.653Z,27.80
2018-04-10T15:02:52.146Z,28.20
2018-04-10T15:05:19.659Z,28.60
2018-04-10T15:07:47.162Z,28.90
2018-04-10T15:10:14.690Z,29.10
2018-04-10T15:12:42.169Z,29.10
2018-04-10T15:15:09.643Z,28.90
2018-04-10T15:17:37.136Z,29.10
2018-04-10T15:20:05.753Z,29.40
2018-04-10T15:22:33.251Z,29.60
2018-04-10T15:25:00.758Z,29.40
2018-04-10T15:27:28.294Z,29.20
2018-04-10T15:29:55.788Z,28.70
2018-04-10T15:32:23.717Z,28.60
2018-04-10T15:34:51.242Z,28.50
2018-04-10T15:37:18.755Z,28.70
2018-04-10T15:39:46.247Z,28.50
2018-04-10T15:42:13.722Z,28.50
2018-04-10T15:44:41.254Z,28.60
2018-04-10T15:47:08.760Z,28.20
2018-04-10T15:49:36.250Z,28.20
2018-04-10T15:52:04.139Z,27.80
2018-04-10T15:54:31.635Z,27.80
2018-04-10T15:56:59.133Z,27.70
2018-04-10T15:59:27.037Z,26.60
2018-04-10T16:01:54.555Z,26.60
2018-04-10T16:04:22.436Z,25.90
2018-04-10T16:06:49.952Z,25.90
2018-04-10T16:09:17.486Z,25.70
2018-04-10T16:11:44.984Z,25.50
2018-04-10T16:14:12.493Z,25.40
2018-04-10T16:16:39.991Z,25.20
2018-04-10T16:19:07.467Z,24.70
2018-04-10T16:21:35.411Z,24.30
2018-04-10T16:24:02.891Z,24.30
2018-04-10T16:26:30.807Z,23.90
2018-04-10T16:28:58.310Z,23.90
2018-04-10T16:31:26.201Z,24.00
2018-04-10T16:33:53.723Z,24.00
2018-04-10T16:36:21.203Z,23.80
2018-04-10T16:38:49.105Z,23.20
2018-04-10T16:41:16.614Z,23.20
2018-04-10T16:43:44.520Z,22.90
2018-04-10T16:46:12.022Z,22.90
2018-04-10T16:48:39.521Z,22.70
2018-04-10T16:51:07.008Z,22.50
2018-04-10T16:53:34.629Z,22.40
2018-04-10T16:56:02.523Z,22.10
2018-04-10T16:58:30.007Z,22.10
2018-04-10T17:00:57.505Z,21.90
2018-04-10T17:03:25.388Z,21.80
2018-04-10T17:05:52.906Z,21.80
2018-04-10T17:08:20.392Z,21.70
2018-04-10T17:10:48.289Z,21.50
2018-04-10T17:13:16.818Z,21.50
2018-04-10T17:15:44.331Z,21.40
2018-04-10T17:18:11.835Z,21.40
2018-04-10T17:20:39.332Z,21.30
2018-04-10T17:23:06.836Z,21.20
2018-04-10T17:25:34.336Z,21.10
2018-04-10T17:28:01.831Z,21.00
2018-04-10T17:30:29.338Z,20.90
2018-04-10T17:32:57.218Z,20.80
2018-04-10T17:35:24.714Z,20.80
2018-04-10T17:37:52.242Z,20.70
2018-04-10T17:40:19.771Z,20.70
2018-04-10T17:42:47.647Z,20.60
2018-04-10T17:45:15.544Z,20.50
2018-04-10T17:47:43.045Z,20.50
2018-04-10T17:50:10.580Z,20.50
2018-04-10T17:52:38.106Z,20.40
2018-04-10T17:55:05.624Z,20.30
2018-04-10T17:57:33.131Z,20.30
2018-04-10T18:00:00.633Z,20.20
2018-04-10T18:02:28.114Z,20.10
2018-04-10T18:04:56.006Z,20.00
2018-04-10T18:07:23.528Z,20.00
2018-04-10T18:09:51.081Z,19.90
2018-04-10T18:12:18.986Z,19.70
2018-04-10T18:14:46.504Z,19.70
2018-04-10T18:17:13.979Z,19.60
2018-04-10T18:19:46.559Z,19.40
2018-04-10T18:22:14.161Z,19.40
2018-04-10T18:24:41.654Z,19.40
2018-04-10T18:27:10.326Z,19.30
2018-04-10T18:29:43.681Z,19.20
2018-04-10T18:32:15.504Z,19.20
2018-04-10T18:34:44.983Z,19.00
2018-04-10T18:37:13.983Z,19.00
2018-04-10T18:39:41.565Z,19.00
2018-04-10T18:42:09.471Z,18.80
2018-04-10T18:44:37.452Z,18.80
2018-04-10T18:47:04.962Z,18.80
2018-04-10T18:49:32.469Z,18.70
2018-04-10T18:51:59.972Z,18.70
2018-04-10T18:54:27.885Z,18.60
2018-04-10T18:56:55.369Z,18.60
2018-04-10T18:59:22.903Z,18.50
2018-04-10T19:01:50.397Z,18.50
2018-04-10T19:04:17.905Z,18.50
2018-04-10T19:06:45.415Z,18.40
2018-04-10T19:09:13.366Z,18.30
2018-04-10T19:11:40.922Z,18.30
2018-04-10T19:14:08.423Z,18.30
2018-04-10T19:16:35.951Z,18.20
2018-04-10T19:19:03.451Z,18.20
2018-04-10T19:21:30.947Z,18.20
2018-04-10T19:23:58.457Z,18.20
2018-04-10T19:26:25.946Z,18.10
2018-04-10T19:28:53.517Z,18.10
2018-04-10T19:31:21.008Z,18.20
2018-04-10T19:33:48.918Z,18.20
2018-04-10T19:36:16.444Z,18.20
2018-04-10T19:38:45.054Z,18.10
2018-04-10T19:41:12.599Z,18.10
2018-04-10T19:43:40.210Z,18.10
2018-04-10T19:46:07.743Z,18.10
2018-04-10T19:48:35.255Z,18.00
2018-04-10T19:51:03.194Z,17.90
2018-04-10T19:53:30.760Z,17.90
2018-04-10T19:55:58.302Z,17.90
2018-04-10T19:58:25.878Z,17.80
2018-04-10T20:00:54.382Z,17.80
2018-04-10T20:03:22.370Z,17.70
2018-04-10T20:05:49.956Z,17.70
2018-04-10T20:08:17.531Z,17.70
2018-04-10T20:10:45.087Z,17.70
2018-04-10T20:13:12.631Z,17.70
2018-04-10T20:15:40.262Z,17.70
2018-04-10T20:18:08.805Z,17.70
2018-04-10T20:20:37.804Z,17.70
2018-04-10T20:23:05.443Z,17.70
2018-04-10T20:25:33.008Z,17.70
2018-04-10T20:28:00.496Z,17.80
2018-04-10T20:30:28.375Z,17.70
2018-04-10T20:32:55.881Z,17.70
2018-04-10T20:35:23.379Z,17.70
2018-04-10T20:37:50.891Z,17.70
2018-04-10T20:40:18.405Z,17.70
2018-04-10T20:42:45.890Z,17.70
2018-04-10T20:45:13.369Z,17.60
2018-04-10T20:47:40.873Z,17.60
2018-04-10T20:50:08.372Z,17.50
2018-04-10T20:52:35.853Z,17.40
2018-04-10T20:55:03.349Z,17.40
2018-04-10T20:57:30.857Z,17.30
2018-04-10T20:59:58.430Z,17.30
2018-04-10T21:02:25.951Z,17.30
2018-04-10T21:04:53.467Z,17.20
2018-04-10T21:07:21.377Z,17.20
2018-04-10T21:09:48.862Z,17.20
2018-04-10T21:12:16.370Z,17.20
2018-04-10T21:14:43.897Z,17.10
2018-04-10T21:17:12.109Z,17.10
2018-04-10T21:19:39.610Z,17.10
2018-04-10T21:22:07.156Z,17.00
2018-04-10T21:24:34.661Z,17.00
2018-04-10T21:27:02.543Z,16.90
2018-04-10T21:29:30.027Z,16.90
2018-04-10T21:31:57.507Z,16.90
2018-04-10T21:34:25.367Z,16.90
2018-04-10T21:36:53.598Z,16.90
2018-04-10T21:39:21.302Z,16.90
2018-04-10T21:41:49.382Z,16.80
2018-04-10T21:44:16.874Z,16.80
2018-04-10T21:46:44.765Z,16.80
2018-04-10T21:49:12.276Z,16.80
2018-04-10T21:51:40.165Z,16.70
2018-04-10T21:54:08.039Z,16.70
2018-04-10T21:56:35.544Z,16.70
2018-04-10T21:59:03.022Z,16.70
2018-04-10T22:01:30.499Z,16.70
2018-04-10T22:03:58.393Z,16.60
2018-04-10T22:06:25.896Z,16.60
2018-04-10T22:08:53.433Z,16.60
2018-04-10T22:11:20.933Z,16.50
2018-04-10T22:13:48.823Z,16.40
2018-04-10T22:16:16.302Z,16.40
2018-04-10T22:18:43.820Z,16.30
2018-04-10T22:21:11.321Z,16.20
2018-04-10T22:23:38.817Z,16.00
2018-04-10T22:26:06.303Z,15.90
2018-04-10T22:28:33.806Z,15.80
2018-04-10T22:31:01.287Z,15.70
2018-04-10T22:33:28.770Z,15.50
2018-04-10T22:35:56.483Z,15.40
2018-04-10T22:38:24.356Z,15.20
2018-04-10T22:40:52.240Z,15.10
2018-04-10T22:43:19.725Z,15.10
2018-04-10T22:45:47.246Z,15.00
2018-04-10T22:48:14.723Z,14.90
2018-04-10T22:50:42.240Z,14.80
2018-04-10T22:53:09.691Z,14.70
2018-04-10T22:55:37.171Z,14.60
2018-04-10T22:58:05.078Z,14.50
2018-04-10T23:00:48.262Z,14.50
2018-04-10T23:03:16.157Z,14.30
2018-04-10T23:05:43.655Z,14.30
2018-04-10T23:08:11.151Z,14.20
2018-04-10T23:10:39.026Z,14.10
2018-04-10T23:13:06.948Z,14.00
2018-04-10T23:15:34.482Z,14.00
2018-04-10T23:18:01.986Z,13.90
2018-04-10T23:20:29.510Z,13.90
2018-04-10T23:22:56.990Z,13.80
2018-04-10T23:25:24.498Z,13.70
2018-04-10T23:27:52.389Z,13.60
2018-04-10T23:30:19.894Z,13.60
2018-04-10T23:32:47.379Z,13.50
2018-04-10T23:35:15.274Z,13.40
2018-04-10T23:37:42.755Z,13.40
2018-04-10T23:40:10.238Z,13.30
2018-04-10T23:42:37.754Z,13.20
2018-04-10T23:45:05.292Z,13.20
2018-04-10T23:47:32.794Z,13.10
2018-04-10T23:50:00.300Z,13.00
2018-04-10T23:52:27.821Z,13.00
2018-04-10T23:54:55.337Z,12.90
2018-04-10T23:57:22.837Z,12.80
2018-04-10T23:59:50.309Z,12.80
